GABS/BKO METAR and TAF weather

Enter ICAO airport designator
Station Type Date Time Source
GABS METAR 2019/06/26 20:00 UTC NOAA

GABS 262000Z 19005KT CAVOK 34/20 Q1013 NOSIG


Station Type Date Time Source
GABS Decoded METAR 2019/06/26 20:00 UTC NOAA

Bamako / Senou, Mali (GABS) 12-32N 007-57W 381M
Jun 26, 2019 - 04:00 PM EDT / 2019.06.26 2000 UTC
Wind: from the S (190 degrees) at 6 MPH (5 KT):0
Visibility: greater than 7 mile(s):0
Temperature: 93 F (34 C)
Heat index: 96.8 F (36.0 C):1
Dew Point: 68 F (20 C)
Relative Humidity: 43%
Pressure (altimeter): 29.91 in. Hg (1013 hPa)
ob: GABS 262000Z 19005KT CAVOK 34/20 Q1013 NOSIG
cycle: 20

Station Type Date Time Source
GABS TAF 2019/06/26 18:30 UTC NOAA

TAF TAF GABS 261726Z 2618/2724 19010KT 9999 FEW030 PROB30
TEMPO 2620/2624 TS FEW030 FEW033CB

Example: see airport list